x

St Georges - 8nm Nw Of Crescent City, Ca (46027) Wave Buoy

2:50am - Sat 25th Feb 2017 All times are PST. -8 hours from GMT.

  • Sig Wave height 6.6ft
  • Swell Direction
  • Peak Period 15s
  • Average Period 7s
  • Wind
    16mph, 20mph gusts
  • Sea Temp 52°f
  • Air Temp 44°f
  • Sea Pressure 1020.8mb
  • St Georges - 8nm Nw Of Crescent City, Ca
  • St Georges - 8nm Nw Of Crescent City, Ca

More Historic Weather Station data

Upgrade to MSW Pro to gain access to the past 30 days of data for over 8000 Wavebouys and Weather Stations around the globe.

Join Pro

Comparision Forecast

View Surf forecast
   
Sat 02/25 2:50am 6.5ft 15s 7s 16 20 mph 1020.8mb 52f 44f
1:50am 7ft 15s 7s 22 25 mph 1020.7mb 52f 44f
12:50am 7ft 14s 7s 20 25 mph 1020.8mb 52f 44f
Fri 02/24 11:50pm 7ft 14s 7s 20 25 mph 1021mb 52f 43f
10:50pm 8ft 15s 7s 20 25 mph 1021.3mb 52f 43f
9:50pm 6ft 15s 7s 18 22 mph 1021.1mb 52f 44f
8:50pm 6.5ft 15s 8s 18 22 mph 1021.4mb 52f 42f
7:50pm 6ft 15s 7s 18 20 mph 1020.9mb 52f 44f
6:50pm 6.5ft 15s 6s 22 27 mph 1020.9mb 52f 44f
5:50pm 6.5ft 15s 7s 16 18 mph 1021.3mb 52f 44f
4:50pm 6ft 15s 7s 16 18 mph 1021.2mb 52f 45f
3:50pm 6ft 15s 7s 7 13 mph 1022.1mb 52f 43f
2:50pm 7ft 15s 8s 11 22 mph 1022.3mb 52f 45f
1:50pm 6.5ft 16s 8s 9 18 mph 1023mb 52f 42f
12:50pm 7ft 16s 7s 22 27 mph 1022.7mb 52f 42f
11:50am 6ft 16s 7s 18 27 mph 1023.7mb 51f 43f
10:50am 7ft 16s 7s 20 27 mph 1023.6mb 51f 43f
9:50am 7ft 16s 7s 16 22 mph 1023.7mb 52f 43f
8:50am 7.5ft 16s 8s 13 18 mph 1023.8mb 52f 42f
7:50am 7ft 9s 8s 11 13 mph 1023.9mb 52f 42f
6:50am 7ft 10s 8s 11 13 mph 1023.6mb 52f 43f
5:50am 6.5ft 10s 8s 11 13 mph 1023.5mb 52f 43f
4:50am 7ft 10s 8s 9 13 mph 1023.7mb 51f 42f
3:50am 6.5ft 9s 8s 9 11 mph 1024.3mb 51f 42f
2:50am 6ft 10s 8s 9 11 mph 1024.8mb 51f 42f
1:50am 6ft 10s 8s 7 9 mph 1025mb 51f 43f
12:50am 7ft 9s 8s 2 4 mph 1025.1mb 50f 42f
Thu 02/23 11:50pm 6ft 9s 8s 9 11 mph 1025mb 50f 43f
10:50pm 7ft 11s 8s 7 9 mph 1025.3mb 51f 44f
9:50pm 6.5ft 9s 7s 9 11 mph 1025mb 52f 45f
8:50pm 6.5ft 9s 7s 13 16 mph 1024.8mb 52f 46f
7:50pm 6ft 8s 6s 16 18 mph 1024.7mb 53f 47f
6:50pm 6.5ft 8s 6s 16 20 mph 1024.7mb 53f 47f
5:50pm 7ft 8s 7s 18 22 mph 1024.7mb 53f 47f
4:50pm 7ft 8s 7s 18 20 mph 1024.7mb 53f 47f
3:50pm 6.5ft 8s 7s 16 20 mph 1024.8mb 53f 47f
2:50pm 7ft 8s 7s 13 16 mph 1025mb 53f 46f
1:50pm 6ft 9s 7s 11 13 mph 1025.4mb 53f 46f
12:50pm 6ft 10s 7s 2 4 mph 1025.8mb 53f 44f
11:50am 6.5ft 8s 7s 2 4 mph 1026.4mb 52f 43f
10:50am 6.5ft 8s 7s 4 7 mph 1026.4mb 52f 42f
9:50am 6ft 11s 7s 4 7 mph 1026.1mb 51f 42f
8:50am 6ft 12s 7s 4 7 mph 1025.6mb 51f 42f
7:50am 6ft 12s 7s 4 9 mph 1025.3mb 50f 42f
6:50am 6.5ft 11s 7s 4 9 mph 1024.9mb 51f 41f
5:50am 6.5ft 12s 7s 2 7 mph 1024.6mb 50f 42f
4:50am 7ft 12s 7s 4 7 mph 1024.2mb 50f 42f
3:50am 6.5ft 13s 7s 7 11 mph 1023.9mb 50f 42f
2:50am 6.5ft 12s 7s 2 4 mph 1024.2mb 50f 43f
1:50am 6ft 11s 7s 4 7 mph 1024.2mb 51f 42f
12:50am 7ft 13s 7s 2 7 mph 1024.3mb 51f 41f
Wed 02/22 11:50pm 7ft 12s 7s 4 7 mph 1024.3mb 51f 42f
10:50pm 7.5ft 11s 7s 13 16 mph 1023.8mb 52f 42f
9:50pm 7.5ft 13s 7s 16 20 mph 1024.1mb 52f 44f
8:50pm 8ft 9s 8s 11 20 mph 1023.8mb 52f 44f
7:50pm 8ft 11s 8s 13 18 mph 1023.5mb 52f 45f
6:50pm 7.5ft 12s 8s 13 18 mph 1023.6mb 52f 45f
5:50pm 8ft 13s 8s 9 16 mph 1023.7mb 52f 46f
4:50pm 8ft 13s 8s 9 13 mph 1024mb 53f 44f
3:50pm 9.5ft 12s 8s 18 25 mph 1023.4mb 53f 47f
2:50pm 8ft 12s 7s 20 27 mph 1023.4mb 53f 47f
1:50pm 9ft 14s 7s 20 22 mph 1023.6mb 53f 47f
12:50pm 9.5ft 12s 7s 18 22 mph 1023.8mb 53f 46f
11:50am 9.5ft 11s 7s 20 25 mph 1024.1mb 53f 46f
10:50am 9ft 11s 7s 22 29 mph 1023.8mb 53f 45f
9:50am 10ft 11s 7s 20 25 mph 1023.8mb 53f 45f
8:50am 11ft 13s 8s 20 25 mph 1023.5mb 53f 45f
7:50am 10.5ft 14s 7s 22 27 mph 1023.2mb 53f 45f
6:50am 10ft 15s 8s 22 29 mph 1022.6mb 53f 45f
5:50am 9ft 12s 8s 20 25 mph 1022.8mb 53f 45f
4:50am 10.5ft 14s 8s 18 20 mph 1023.1mb 53f 46f
2:50am 11ft 15s 9s 13 18 mph 1023mb 53f 47f
1:50am 9.5ft 15s 8s 18 22 mph 1022.8mb 53f 48f
12:50am 10ft 15s 9s 11 13 mph 1022.7mb 53f 48f
Tue 02/21 11:50pm 9ft 15s 8s 7 11 mph 1022.3mb 53f 49f
10:50pm 9.5ft 16s 9s 9 11 mph 1022.2mb 53f 48f
9:50pm 8ft 16s 8s 4 7 mph 1022.6mb 53f 49f
8:50pm 9ft 16s 8s 4 7 mph 1022.2mb 53f 48f
7:50pm 8ft 16s 7s 11 13 mph 1021.7mb 53f 49f
6:50pm 8ft 10s 7s 16 20 mph 1021.6mb 53f 48f
5:50pm 8.5ft 10s 8s 9 11 mph 1021.3mb 53f 49f
4:50pm 8ft 11s 7s 9 13 mph 1020.9mb 53f 48f
3:50pm 8ft 10s 7s 9 11 mph 1020.9mb 53f 51f
2:50pm 8.5ft 11s 7s 18 20 mph 1020.6mb 53f 51f
1:50pm 8.5ft 9s 7s 16 18 mph 1020.4mb 53f 51f
12:50pm 8.5ft 9s 7s 18 22 mph 1020.1mb 53f 52f